createdAt,value
2023-04-10T00:01:53.402Z,9.65
2023-04-10T00:04:24.104Z,9.25
2023-04-10T00:06:53.735Z,8.78
2023-04-10T00:09:23.171Z,9.33
2023-04-10T00:11:53.579Z,9.13
2023-04-10T00:14:22.925Z,9.55
2023-04-10T00:16:55.229Z,10.28
2023-04-10T00:19:24.718Z,10.35
2023-04-10T00:21:53.975Z,10.23
2023-04-10T00:24:24.647Z,10.53
2023-04-10T00:26:57.131Z,10.15
2023-04-10T00:29:27.010Z,9.58
2023-04-10T00:31:58.511Z,9.40
2023-04-10T00:34:27.488Z,10.25
2023-04-10T00:36:57.056Z,10.48
2023-04-10T00:39:27.691Z,9.78
2023-04-10T00:41:59.045Z,9.45
2023-04-10T00:44:28.778Z,9.83
2023-04-10T00:46:58.173Z,9.53
2023-04-10T00:49:27.571Z,9.68
2023-04-10T00:51:58.341Z,9.73
2023-04-10T00:54:29.038Z,9.90
2023-04-10T00:56:58.916Z,10.45
2023-04-10T00:59:28.091Z,9.38
2023-04-10T01:01:57.661Z,9.78
2023-04-10T01:04:28.740Z,10.40
2023-04-10T01:07:19.755Z,9.73
2023-04-10T01:10:11.839Z,10.25
2023-04-10T01:13:20.985Z,9.98
2023-04-10T01:16:18.366Z,9.90
2023-04-10T01:19:17.040Z,11.08
2023-04-10T01:21:45.985Z,10.75
2023-04-10T01:24:37.146Z,11.40
2023-04-10T01:27:35.128Z,10.75
2023-04-10T01:30:06.558Z,10.50
2023-04-10T01:32:37.093Z,10.72
2023-04-10T01:35:07.855Z,10.70
2023-04-10T01:37:43.634Z,10.32
2023-04-10T01:40:15.347Z,10.05
2023-04-10T01:42:56.071Z,9.70
2023-04-10T01:45:28.918Z,10.20
2023-04-10T01:47:57.887Z,9.90
2023-04-10T01:50:28.467Z,10.03
2023-04-10T01:52:57.253Z,9.73
2023-04-10T01:55:29.187Z,9.58
2023-04-10T01:58:01.278Z,10.03
2023-04-10T02:00:41.937Z,10.68
2023-04-10T02:03:12.601Z,11.03
2023-04-10T02:06:17.767Z,10.90
2023-04-10T02:08:55.866Z,11.48
2023-04-10T02:11:58.181Z,12.37
2023-04-10T02:14:31.766Z,12.70
2023-04-10T02:17:01.243Z,12.10
2023-04-10T02:19:32.051Z,12.00
2023-04-10T02:22:04.063Z,11.73
2023-04-10T02:24:35.334Z,12.50
2023-04-10T02:27:04.633Z,12.85
2023-04-10T02:29:35.679Z,13.00
2023-04-10T02:32:06.116Z,13.40
2023-04-10T02:34:35.028Z,12.60
2023-04-10T02:37:05.439Z,13.98
2023-04-10T02:39:34.840Z,13.88
2023-04-10T02:42:04.242Z,13.00
2023-04-10T02:44:33.892Z,12.80
2023-04-10T02:47:03.349Z,14.28
2023-04-10T02:49:34.912Z,12.78
2023-04-10T02:52:07.947Z,13.40
2023-04-10T02:54:39.961Z,13.53
2023-04-10T02:57:09.371Z,13.95
2023-04-10T02:59:39.811Z,14.00
2023-04-10T03:02:09.270Z,14.20
2023-04-10T03:04:39.464Z,14.65
2023-04-10T03:07:09.015Z,12.63
2023-04-10T03:09:40.726Z,12.58
2023-04-10T03:12:10.395Z,12.55
2023-04-10T03:14:41.418Z,12.25
2023-04-10T03:17:12.285Z,12.58
2023-04-10T03:19:41.333Z,12.60
2023-04-10T03:22:11.275Z,12.70
2023-04-10T03:24:42.235Z,12.70
2023-04-10T03:27:12.831Z,12.85
2023-04-10T03:29:44.026Z,12.35
2023-04-10T03:32:13.061Z,12.30
2023-04-10T03:34:43.342Z,12.65
2023-04-10T03:37:12.566Z,13.50
2023-04-10T03:39:43.172Z,12.80
2023-04-10T03:42:14.403Z,12.53
2023-04-10T03:44:43.928Z,14.50
2023-04-10T03:47:13.435Z,13.20
2023-04-10T03:49:46.343Z,12.10
2023-04-10T03:52:17.520Z,13.15
2023-04-10T03:54:46.817Z,12.82
2023-04-10T03:57:21.553Z,13.00
2023-04-10T03:59:52.022Z,12.47
2023-04-10T04:02:21.222Z,13.03
2023-04-10T04:04:50.861Z,12.60
2023-04-10T04:07:25.858Z,12.60
2023-04-10T04:10:00.487Z,14.20
2023-04-10T04:12:31.939Z,13.35
2023-04-10T04:15:03.860Z,13.08
2023-04-10T04:17:42.425Z,13.43
2023-04-10T04:20:13.099Z,13.72
2023-04-10T04:22:47.785Z,13.80
2023-04-10T04:25:35.917Z,13.65
2023-04-10T04:28:16.220Z,12.98
2023-04-10T04:30:47.720Z,12.95
2023-04-10T04:33:21.206Z,12.95
2023-04-10T04:36:05.388Z,13.65
2023-04-10T04:38:39.562Z,12.80
2023-04-10T04:41:29.480Z,13.55
2023-04-10T04:44:19.828Z,13.80
2023-04-10T04:47:03.442Z,14.45
2023-04-10T04:49:51.636Z,13.43
2023-04-10T04:52:34.800Z,12.98
2023-04-10T04:55:08.877Z,13.58
2023-04-10T04:57:50.541Z,14.15
2023-04-10T05:00:24.260Z,13.78
2023-04-10T05:02:57.821Z,13.65
2023-04-10T05:05:42.475Z,13.13
2023-04-10T05:08:20.619Z,11.40
2023-04-10T05:11:08.821Z,12.90
2023-04-10T05:13:42.932Z,13.25
2023-04-10T05:16:26.144Z,11.80
2023-04-10T05:19:10.663Z,12.37
2023-04-10T05:22:01.934Z,11.78
2023-04-10T05:24:44.755Z,11.88
2023-04-10T05:27:22.589Z,11.80
2023-04-10T05:30:11.269Z,12.23
2023-04-10T05:32:42.314Z,12.05
2023-04-10T05:35:31.150Z,12.58
2023-04-10T05:38:01.981Z,11.43
2023-04-10T05:40:48.262Z,11.88
2023-04-10T05:43:18.847Z,11.80
2023-04-10T05:45:55.825Z,11.18
2023-04-10T05:48:31.038Z,11.68
2023-04-10T05:51:09.767Z,11.35
2023-04-10T05:53:41.710Z,11.78
2023-04-10T05:56:15.446Z,12.00
2023-04-10T05:58:50.137Z,10.93
2023-04-10T06:01:21.520Z,11.00
2023-04-10T06:03:52.415Z,10.93
2023-04-10T06:06:22.229Z,11.18
2023-04-10T06:08:52.181Z,10.60
2023-04-10T06:11:21.555Z,11.28
2023-04-10T06:13:53.615Z,10.93
2023-04-10T06:16:25.851Z,11.20
2023-04-10T06:18:58.301Z,11.80
2023-04-10T06:21:27.484Z,11.78
2023-04-10T06:23:57.287Z,11.78
2023-04-10T06:26:26.935Z,11.48
2023-04-10T06:28:56.919Z,12.28
2023-04-10T06:31:28.116Z,11.88
2023-04-10T06:34:01.188Z,12.47
2023-04-10T06:36:31.378Z,12.35
2023-04-10T06:39:04.367Z,12.05
2023-04-10T06:41:34.104Z,12.13
2023-04-10T06:44:12.800Z,12.93
2023-04-10T06:46:42.488Z,12.50
2023-04-10T06:49:11.408Z,11.48
2023-04-10T06:51:41.134Z,12.33
2023-04-10T06:54:10.205Z,11.18
2023-04-10T06:56:39.602Z,11.73
2023-04-10T06:59:08.699Z,11.80
2023-04-10T07:01:37.757Z,11.70
2023-04-10T07:04:09.134Z,11.20
2023-04-10T07:06:39.711Z,11.83
2023-04-10T07:09:10.136Z,12.13
2023-04-10T07:11:39.430Z,12.53
2023-04-10T07:14:08.756Z,12.60
2023-04-10T07:16:37.921Z,12.88
2023-04-10T07:19:07.431Z,12.98
2023-04-10T07:21:36.921Z,13.13
2023-04-10T07:24:07.720Z,13.32
2023-04-10T07:26:36.707Z,13.35
2023-04-10T07:29:05.613Z,13.25
2023-04-10T07:31:35.838Z,14.47
2023-04-10T07:34:05.686Z,14.47
2023-04-10T07:36:34.608Z,12.75
2023-04-10T07:39:04.306Z,13.75
2023-04-10T07:41:33.216Z,14.73
2023-04-10T07:44:02.003Z,14.05
2023-04-10T07:46:31.127Z,13.22
2023-04-10T07:49:00.244Z,13.83
2023-04-10T07:51:29.795Z,15.18
2023-04-10T07:53:59.280Z,14.55
2023-04-10T07:56:31.388Z,15.80
2023-04-10T07:59:01.083Z,13.98
2023-04-10T08:01:30.133Z,14.83
2023-04-10T08:04:00.612Z,12.98
2023-04-10T08:06:32.518Z,12.70
2023-04-10T08:09:01.628Z,12.18
2023-04-10T08:11:37.395Z,11.50
2023-04-10T08:14:06.906Z,10.85
2023-04-10T08:16:38.911Z,10.65
2023-04-10T08:19:08.292Z,11.03
2023-04-10T08:21:37.682Z,10.90
2023-04-10T08:24:06.858Z,11.60
2023-04-10T08:26:35.561Z,13.93
2023-04-10T08:29:04.970Z,13.65
2023-04-10T08:31:34.457Z,13.70
2023-04-10T08:34:05.052Z,13.53
2023-04-10T08:36:35.803Z,14.00
2023-04-10T08:39:05.501Z,13.40
2023-04-10T08:41:36.129Z,14.70
2023-04-10T08:44:07.324Z,13.22
2023-04-10T08:46:37.828Z,13.28
2023-04-10T08:49:08.666Z,14.07
2023-04-10T08:51:59.015Z,13.08
2023-04-10T08:54:30.750Z,14.75
2023-04-10T08:57:01.132Z,16.97
2023-04-10T08:59:31.141Z,16.32
2023-04-10T09:02:01.651Z,13.93
2023-04-10T09:04:32.431Z,14.95
2023-04-10T09:07:02.031Z,13.43
2023-04-10T09:09:35.219Z,11.93
2023-04-10T09:12:06.746Z,11.73
2023-04-10T09:14:36.369Z,11.68
2023-04-10T09:17:23.591Z,10.53
2023-04-10T09:19:55.319Z,10.50
2023-04-10T09:22:35.080Z,11.43
2023-04-10T09:25:07.136Z,12.28
2023-04-10T09:27:37.373Z,12.75
2023-04-10T09:30:08.225Z,13.90
2023-04-10T09:32:44.003Z,14.05
2023-04-10T09:35:15.462Z,14.07
2023-04-10T09:37:47.588Z,14.18
2023-04-10T09:40:24.442Z,14.70
2023-04-10T09:42:55.886Z,14.55
2023-04-10T09:45:24.736Z,15.20
2023-04-10T09:48:08.612Z,14.85
2023-04-10T09:50:40.739Z,12.90
2023-04-10T09:53:21.628Z,12.00
2023-04-10T09:55:50.968Z,10.72
2023-04-10T09:58:20.643Z,11.75
2023-04-10T10:00:59.151Z,12.40
2023-04-10T10:03:29.378Z,12.63
2023-04-10T10:05:58.625Z,11.65
2023-04-10T10:08:28.694Z,12.80
2023-04-10T10:10:59.479Z,13.58
2023-04-10T10:13:45.748Z,13.00
2023-04-10T10:19:08.318Z,13.98
2023-04-10T10:21:38.384Z,15.13
2023-04-10T10:24:09.255Z,12.73
2023-04-10T10:26:40.005Z,12.13
2023-04-10T10:29:14.510Z,12.45
2023-04-10T10:31:45.312Z,10.38
2023-04-10T10:34:14.119Z,10.30
2023-04-10T10:36:42.689Z,10.72
2023-04-10T10:40:04.726Z,11.35
2023-04-10T10:42:43.002Z,10.18
2023-04-10T10:45:40.430Z,9.08
2023-04-10T10:48:16.092Z,10.15
2023-04-10T10:51:00.973Z,9.30
2023-04-10T10:53:34.487Z,8.78
2023-04-10T10:56:26.907Z,8.05
2023-04-10T10:59:01.845Z,9.30
2023-04-10T11:01:32.736Z,9.18
2023-04-10T11:04:05.532Z,8.38
2023-04-10T11:06:52.214Z,7.70
2023-04-10T11:09:53.141Z,6.85
2023-04-10T11:12:30.242Z,6.87
2023-04-10T11:15:05.108Z,5.75
2023-04-10T11:17:52.472Z,6.20
2023-04-10T11:20:24.704Z,5.67
2023-04-10T11:23:16.755Z,5.95
2023-04-10T11:25:54.374Z,6.20
2023-04-10T11:28:40.272Z,5.95
2023-04-10T11:31:23.154Z,5.58
2023-04-10T11:34:04.188Z,4.45
2023-04-10T11:36:43.868Z,4.62
2023-04-10T11:39:14.096Z,4.30
2023-04-10T11:41:45.639Z,4.22
2023-04-10T11:44:19.991Z,3.92
2023-04-10T11:46:50.447Z,3.62
2023-04-10T11:49:26.239Z,4.62
2023-04-10T11:51:55.151Z,3.90
2023-04-10T11:54:28.023Z,4.67
2023-04-10T11:57:03.382Z,3.92
2023-04-10T11:59:33.942Z,4.47
2023-04-10T12:02:07.869Z,4.70
2023-04-10T12:04:37.489Z,4.58
2023-04-10T12:07:10.219Z,4.00
2023-04-10T12:09:39.193Z,4.17
2023-04-10T12:12:10.859Z,4.53
2023-04-10T12:14:42.922Z,4.70
2023-04-10T12:17:13.130Z,4.35
2023-04-10T12:19:43.687Z,5.20
2023-04-10T12:22:15.105Z,5.08
2023-04-10T12:24:51.914Z,4.28
2023-04-10T12:27:28.537Z,6.53
2023-04-10T12:29:58.498Z,6.65
2023-04-10T12:32:27.830Z,9.30
2023-04-10T12:34:58.657Z,7.97
2023-04-10T12:37:54.400Z,7.47
2023-04-10T12:40:26.882Z,8.10
2023-04-10T12:42:56.181Z,7.35
2023-04-10T12:45:44.131Z,7.70
2023-04-10T12:48:13.312Z,8.33
2023-04-10T12:50:49.875Z,8.80
2023-04-10T12:53:19.645Z,8.85
2023-04-10T12:56:02.438Z,10.18
2023-04-10T12:58:33.519Z,10.63
2023-04-10T13:01:07.018Z,9.58
2023-04-10T13:03:38.480Z,8.70
2023-04-10T13:06:09.000Z,6.45
2023-04-10T13:08:38.807Z,5.92
2023-04-10T13:11:09.949Z,5.90
2023-04-10T13:13:39.903Z,5.20
2023-04-10T13:16:12.067Z,5.20
2023-04-10T13:18:40.969Z,4.20
2023-04-10T13:21:10.951Z,16.17
2023-04-10T13:23:42.497Z,3.87
2023-04-10T13:26:11.530Z,4.33
2023-04-10T13:28:41.522Z,4.10
2023-04-10T13:31:10.668Z,4.87
2023-04-10T13:33:39.247Z,4.85
2023-04-10T13:36:09.789Z,4.65
2023-04-10T13:38:38.864Z,6.15
2023-04-10T13:41:08.985Z,6.22
2023-04-10T13:43:38.675Z,6.25
2023-04-10T13:46:08.026Z,9.03
2023-04-10T13:48:41.390Z,6.10
2023-04-10T13:51:10.236Z,4.60
2023-04-10T13:53:42.314Z,4.70
2023-04-10T13:56:12.759Z,4.97
2023-04-10T13:58:42.173Z,5.58
2023-04-10T14:01:13.508Z,5.20
2023-04-10T14:03:43.757Z,4.28
2023-04-10T14:06:14.423Z,4.12
2023-04-10T14:08:44.352Z,4.67
2023-04-10T14:11:13.217Z,18.90
2023-04-10T14:13:42.612Z,69.95
2023-04-10T14:16:12.236Z,280.50
2023-04-10T14:18:41.426Z,116.65
2023-04-10T14:21:12.919Z,63.80
2023-04-10T14:23:43.880Z,91.72
2023-04-10T14:26:13.917Z,67.90
2023-04-10T14:28:46.053Z,19.95
2023-04-10T14:31:15.230Z,22.37
2023-04-10T14:33:44.624Z,15.13
2023-04-10T14:36:14.914Z,11.93
2023-04-10T14:38:44.073Z,8.88
2023-04-10T14:41:14.616Z,7.05
2023-04-10T14:43:44.777Z,8.28
2023-04-10T14:46:15.167Z,8.00
2023-04-10T14:48:44.255Z,9.00
2023-04-10T14:51:15.106Z,6.65
2023-04-10T14:53:46.107Z,8.25
2023-04-10T14:56:15.918Z,9.28
2023-04-10T14:58:46.972Z,9.13
2023-04-10T15:01:17.425Z,7.62
2023-04-10T15:03:51.085Z,8.95
2023-04-10T15:06:21.580Z,9.20
2023-04-10T15:08:50.646Z,9.45
2023-04-10T15:11:21.315Z,8.88
2023-04-10T15:13:52.113Z,9.25
2023-04-10T15:16:22.183Z,9.38
2023-04-10T15:18:53.406Z,11.25
2023-04-10T15:21:27.458Z,8.68
2023-04-10T15:23:58.868Z,8.33
2023-04-10T15:26:29.423Z,7.20
2023-04-10T15:28:59.731Z,8.05
2023-04-10T15:31:29.874Z,9.00
2023-04-10T15:33:59.266Z,7.60
2023-04-10T15:36:28.886Z,8.78
2023-04-10T15:39:03.251Z,8.48
2023-04-10T15:41:34.194Z,8.13
2023-04-10T15:44:03.241Z,9.85
2023-04-10T15:46:34.273Z,8.20
2023-04-10T15:49:06.914Z,11.65
2023-04-10T15:51:36.307Z,7.97
2023-04-10T15:54:08.344Z,8.20
2023-04-10T15:56:38.130Z,7.35
2023-04-10T15:59:08.172Z,9.13
2023-04-10T16:01:38.516Z,7.60
2023-04-10T16:04:09.929Z,7.53
2023-04-10T16:06:40.750Z,7.70
2023-04-10T16:09:24.306Z,8.43
2023-04-10T16:11:42.432Z,7.40
2023-04-10T16:14:12.287Z,7.62
2023-04-10T16:16:43.762Z,8.88
2023-04-10T16:19:14.306Z,17.55
2023-04-10T16:21:43.584Z,9.25
2023-04-10T16:24:13.050Z,10.03
2023-04-10T16:26:43.520Z,9.35
2023-04-10T16:29:12.876Z,9.63
2023-04-10T16:31:41.725Z,9.53
2023-04-10T16:34:10.635Z,10.40
2023-04-10T16:36:40.060Z,9.25
2023-04-10T16:39:10.888Z,9.98
2023-04-10T16:41:41.739Z,9.90
2023-04-10T16:44:10.715Z,10.48
2023-04-10T16:46:42.226Z,11.12
2023-04-10T16:49:11.149Z,10.00
2023-04-10T16:51:40.101Z,10.88
2023-04-10T16:54:08.941Z,12.25
2023-04-10T16:56:38.456Z,11.35
2023-04-10T16:59:10.186Z,11.28
2023-04-10T17:01:42.307Z,11.22
2023-04-10T17:04:11.419Z,11.15
2023-04-10T17:06:41.309Z,12.45
2023-04-10T17:09:10.242Z,11.22
2023-04-10T17:11:39.594Z,12.85
2023-04-10T17:14:10.091Z,11.97
2023-04-10T17:16:39.615Z,11.78
2023-04-10T17:19:09.860Z,12.28
2023-04-10T17:21:39.009Z,12.07
2023-04-10T17:24:10.612Z,13.48
2023-04-10T17:26:40.641Z,12.68
2023-04-10T17:29:09.753Z,12.63
2023-04-10T17:31:39.189Z,11.12
2023-04-10T17:34:09.408Z,11.28
2023-04-10T17:36:39.786Z,10.90
2023-04-10T17:39:09.082Z,10.70
2023-04-10T17:41:37.772Z,11.35
2023-04-10T17:44:07.996Z,10.08
2023-04-10T17:46:37.536Z,10.50
2023-04-10T17:49:08.076Z,9.10
2023-04-10T17:51:40.718Z,9.10
2023-04-10T17:54:10.479Z,9.23
2023-04-10T17:56:39.256Z,9.08
2023-04-10T17:59:10.163Z,9.35
2023-04-10T18:01:39.588Z,9.65
2023-04-10T18:04:09.449Z,10.03
2023-04-10T18:06:38.361Z,9.63
2023-04-10T18:09:07.297Z,9.03
2023-04-10T18:11:36.254Z,9.73
2023-04-10T18:14:07.940Z,9.65
2023-04-10T18:16:38.271Z,9.65
2023-04-10T18:19:07.162Z,9.50
2023-04-10T18:21:37.665Z,9.23
2023-04-10T18:24:07.879Z,9.35
2023-04-10T18:26:36.613Z,10.10
2023-04-10T18:29:05.594Z,10.63
2023-04-10T18:31:35.890Z,9.08
2023-04-10T18:34:08.285Z,10.23
2023-04-10T18:36:35.629Z,9.55
2023-04-10T18:39:05.066Z,10.63
2023-04-10T18:41:36.022Z,9.43
2023-04-10T18:44:06.124Z,10.03
2023-04-10T18:46:38.482Z,9.78
2023-04-10T18:49:09.073Z,10.18
2023-04-10T18:51:40.396Z,10.32
2023-04-10T18:54:09.853Z,10.60
2023-04-10T18:56:39.965Z,10.55
2023-04-10T18:59:10.482Z,11.33
2023-04-10T19:01:41.304Z,11.18
2023-04-10T19:04:12.002Z,11.05
2023-04-10T19:06:43.532Z,10.98
2023-04-10T19:09:13.294Z,11.48
2023-04-10T19:11:42.851Z,11.33
2023-04-10T19:14:13.387Z,12.58
2023-04-10T19:16:43.386Z,12.00
2023-04-10T19:19:12.278Z,14.05
2023-04-10T19:21:43.919Z,17.85
2023-04-10T19:24:13.340Z,17.85
2023-04-10T19:26:43.561Z,16.67
2023-04-10T19:29:14.195Z,15.88
2023-04-10T19:31:45.625Z,14.15
2023-04-10T19:34:16.178Z,13.45
2023-04-10T19:36:45.497Z,12.90
2023-04-10T19:39:14.270Z,14.78
2023-04-10T19:41:44.453Z,12.37
2023-04-10T19:44:14.636Z,12.47
2023-04-10T19:46:45.307Z,12.47
2023-04-10T19:49:16.394Z,12.68
2023-04-10T19:51:46.864Z,10.10
2023-04-10T19:54:16.494Z,10.48
2023-04-10T19:56:45.765Z,10.53
2023-04-10T19:59:16.567Z,10.38
2023-04-10T20:01:46.871Z,11.43
2023-04-10T20:04:16.556Z,11.03
2023-04-10T20:06:48.065Z,9.50
2023-04-10T20:09:18.179Z,10.65
2023-04-10T20:11:47.656Z,10.65
2023-04-10T20:14:19.353Z,9.60
2023-04-10T20:16:48.540Z,10.05
2023-04-10T20:19:17.402Z,11.05
2023-04-10T20:21:51.320Z,10.18
2023-04-10T20:24:20.666Z,9.88
2023-04-10T20:26:50.832Z,10.60
2023-04-10T20:29:20.888Z,10.13
2023-04-10T20:31:50.379Z,10.55
2023-04-10T20:34:19.428Z,10.70
2023-04-10T20:36:49.858Z,10.23
2023-04-10T20:39:19.638Z,10.15
2023-04-10T20:41:50.378Z,10.18
2023-04-10T20:44:20.994Z,10.10
2023-04-10T20:46:50.987Z,9.48
2023-04-10T20:49:19.819Z,9.30
2023-04-10T20:51:49.800Z,9.33
2023-04-10T20:54:19.078Z,10.13
2023-04-10T20:56:47.735Z,9.55
2023-04-10T20:59:17.838Z,9.78
2023-04-10T21:01:47.476Z,10.65
2023-04-10T21:04:16.747Z,10.18
2023-04-10T21:06:48.962Z,10.15
2023-04-10T21:09:17.737Z,9.53
2023-04-10T21:11:46.517Z,8.53
2023-04-10T21:14:17.141Z,9.40
2023-04-10T21:16:46.362Z,9.10
2023-04-10T21:19:17.266Z,9.03
2023-04-10T21:21:46.049Z,9.80
2023-04-10T21:24:18.096Z,8.98
2023-04-10T21:26:57.572Z,9.23
2023-04-10T21:29:26.553Z,10.25
2023-04-10T21:31:55.862Z,9.33
2023-04-10T21:34:26.385Z,9.80
2023-04-10T21:36:55.598Z,9.30
2023-04-10T21:39:25.544Z,9.70
2023-04-10T21:41:54.690Z,9.15
2023-04-10T21:44:23.699Z,8.78
2023-04-10T21:46:52.820Z,9.18
2023-04-10T21:49:21.888Z,9.20
2023-04-10T21:51:51.551Z,8.93
2023-04-10T21:54:21.339Z,9.90
2023-04-10T21:56:50.395Z,9.18
2023-04-10T21:59:19.302Z,9.43
2023-04-10T22:01:48.354Z,8.70
2023-04-10T22:04:17.238Z,9.45
2023-04-10T22:06:48.237Z,8.70
2023-04-10T22:09:17.750Z,8.68
2023-04-10T22:11:46.841Z,8.68
2023-04-10T22:14:19.384Z,8.58
2023-04-10T22:16:49.563Z,9.10
2023-04-10T22:19:19.806Z,8.68
2023-04-10T22:21:50.623Z,8.98
2023-04-10T22:24:19.710Z,8.63
2023-04-10T22:26:48.793Z,8.15
2023-04-10T22:29:18.091Z,9.08
2023-04-10T22:31:46.994Z,8.48
2023-04-10T22:34:15.965Z,9.13
2023-04-10T22:36:45.806Z,8.40
2023-04-10T22:39:15.417Z,10.00
2023-04-10T22:41:45.951Z,9.33
2023-04-10T22:44:15.166Z,9.18
2023-04-10T22:46:47.809Z,8.95
2023-04-10T22:49:17.138Z,8.45
2023-04-10T22:51:47.027Z,8.20
2023-04-10T22:54:17.371Z,8.38
2023-04-10T22:56:48.718Z,8.50
2023-04-10T22:59:20.488Z,8.58
2023-04-10T23:01:49.321Z,8.60
2023-04-10T23:04:18.196Z,8.78
2023-04-10T23:06:48.406Z,8.65
2023-04-10T23:09:17.266Z,8.35
2023-04-10T23:11:47.710Z,8.35
2023-04-10T23:14:17.816Z,8.65
2023-04-10T23:16:47.165Z,8.45
2023-04-10T23:19:18.796Z,8.20
2023-04-10T23:21:49.620Z,9.05
2023-04-10T23:24:18.810Z,8.98
2023-04-10T23:26:47.640Z,8.50
2023-04-10T23:29:19.673Z,8.78
2023-04-10T23:31:49.891Z,8.48
2023-04-10T23:34:21.474Z,8.53
2023-04-10T23:36:51.788Z,7.87
2023-04-10T23:39:22.723Z,8.45
2023-04-10T23:41:53.290Z,9.00
2023-04-10T23:44:22.350Z,8.68
2023-04-10T23:46:51.751Z,8.55
2023-04-10T23:49:20.662Z,8.85
2023-04-10T23:51:50.261Z,9.00
2023-04-10T23:54:20.498Z,8.93
2023-04-10T23:56:50.806Z,9.43
2023-04-10T23:59:21.014Z,10.10
